Startpagina
METAR-TAF:

METAR-TAF

Vliegvelden :

Vliegveld de Kooy

Den Helder, Nederland

breedte: 52-55N, lengte: 004-47E, hoogte: 0 m

Actueel weer

Dit bericht is 9 minuten geleden gemaakt, om 05:25 UTC
Wind 12 kt uit het oosten
Temperatuur 3°C
Vochtigheid 81%
Druk 1032 hPa
Zicht 10 km of meer
geen wolken onder 1500 m en geen cumulonimbus

METAR: EHKD 180525Z AUTO 08011KT 9999 OVC260 03/00 Q1032 BLU 08012KT CAVOK

Tijdstip: 06:34 (05:34 UTC)

Verwachting

Dit bericht is 5 uur en het 57 minuten geleden gemaakt, om 23:37 UTC
Verwachting geldig van 18 om 02 UTC tot 18 om 14 UTC
Wind 12 kt uit het oosten
Zicht 10 km of meer
geen wolken onder 1500 m en geen cumulonimbus

TAF: EHKD 172337Z 1802/1814 08012KT CAVOK

Waarnemingen en weersverwachtingen van meer dan 4000 vliegvelden (METAR en TAF).

De beschikbare stations zijn de gele en rode punten op de kaart.

Ga met uw muis naar het station om de naam te zien.

Klik dan om waarnemingen en weersverwachtingen te zien.

kaart wijzigen: klik op de groene knoppen met een zwart kruis om in te zoomen, op de groene knop met een streepje om uit te zoomen of op de groene pijlen voor aangrenzende kaarten.


METAR-TAF: